Time;durP1;ratioP1;P1;durP2;ratioP2;P2;SDS_P1;SDS_P2;PMS_P1;PMS_P2;Temp;Humidity;BMP_temperature;BMP_pressure;BME280_temperature;BME280_humidity;BME280_pressure;Samples;Min_cycle;Max_cycle;Signal;HPM_P1;HPM_P2
2021/03/06 00:01:41;;;;;;;11.90;3.83;;;-0.90;99.90;;;;;;5037940;28;20247;-79
2021/03/06 00:04:26;;;;;;;6.97;4.07;;;-0.90;99.90;;;;;;5033409;28;20283;-79
2021/03/06 00:07:11;;;;;;;9.97;4.80;;;-0.90;99.90;;;;;;5026675;28;20750;-80
2021/03/06 00:09:56;;;;;;;8.67;4.00;;;-0.90;99.90;;;;;;5036320;28;20211;-79
2021/03/06 00:12:43;;;;;;;7.03;3.53;;;-1.00;99.90;;;;;;5033740;28;20235;-79
2021/03/06 00:15:28;;;;;;;16.03;4.10;;;-1.00;99.90;;;;;;5035330;28;20212;-79
2021/03/06 00:18:13;;;;;;;12.23;3.87;;;-1.00;99.90;;;;;;5034787;28;20615;-79
2021/03/06 00:20:58;;;;;;;10.93;3.90;;;-1.00;99.90;;;;;;5031566;28;20236;-80
2021/03/06 00:23:44;;;;;;;9.53;3.50;;;-1.10;99.90;;;;;;5043741;28;20211;-80
2021/03/06 00:26:28;;;;;;;10.87;4.27;;;-1.10;99.90;;;;;;5036917;28;20288;-79
2021/03/06 00:29:13;;;;;;;10.93;4.17;;;-1.10;99.90;;;;;;5031810;28;20619;-80
2021/03/06 00:31:58;;;;;;;9.93;4.20;;;-1.10;99.90;;;;;;5037773;28;20235;-79
2021/03/06 00:34:43;;;;;;;11.47;3.90;;;-1.10;99.90;;;;;;5038440;28;20604;-80
2021/03/06 00:37:28;;;;;;;9.00;3.90;;;-1.20;99.90;;;;;;5037847;28;20215;-79
2021/03/06 00:40:14;;;;;;;10.17;4.43;;;-1.20;99.90;;;;;;5033821;28;20268;-78
2021/03/06 00:42:59;;;;;;;13.80;4.57;;;-1.20;99.90;;;;;;5032632;28;20277;-79
2021/03/06 00:45:44;;;;;;;9.03;3.97;;;-1.20;99.90;;;;;;5030652;28;20219;-80
2021/03/06 00:48:29;;;;;;;10.60;3.77;;;-1.30;99.90;;;;;;5031751;28;20623;-80
2021/03/06 00:51:13;;;;;;;11.13;4.17;;;-1.30;99.90;;;;;;5046226;28;20358;-80
2021/03/06 00:53:58;;;;;;;9.23;3.27;;;-1.30;99.90;;;;;;5036105;28;20223;-79
2021/03/06 00:56:44;;;;;;;8.70;3.60;;;-1.30;99.90;;;;;;5026311;28;20250;-80
2021/03/06 00:59:28;;;;;;;12.20;3.57;;;-1.30;99.90;;;;;;5035527;28;20211;-79
2021/03/06 01:02:13;;;;;;;6.37;3.20;;;-1.30;99.90;;;;;;5036719;28;20230;-78
2021/03/06 01:04:58;;;;;;;8.60;3.40;;;-1.10;99.90;;;;;;5037161;28;20195;-79
2021/03/06 01:07:43;;;;;;;7.03;3.33;;;-1.40;99.90;;;;;;5037553;28;20207;-77
2021/03/06 01:10:31;;;;;;;9.10;3.97;;;-1.30;99.90;;;;;;5028248;28;20211;-79
2021/03/06 01:13:17;;;;;;;8.23;3.70;;;-1.40;99.90;;;;;;5037001;28;20630;-80
2021/03/06 01:16:02;;;;;;;11.67;3.60;;;-1.30;99.90;;;;;;5037999;28;20247;-79
2021/03/06 01:18:46;;;;;;;9.37;3.87;;;-1.40;99.90;;;;;;5025815;28;20619;-77
2021/03/06 01:21:31;;;;;;;10.73;3.73;;;-1.40;99.90;;;;;;5031275;28;20235;-79
2021/03/06 01:24:16;;;;;;;9.03;3.37;;;-1.40;99.90;;;;;;5038768;28;20613;-77
2021/03/06 01:27:01;;;;;;;10.23;3.73;;;-1.40;99.90;;;;;;5039619;28;20340;-79
2021/03/06 01:29:47;;;;;;;8.10;3.30;;;-1.40;99.90;;;;;;5036811;28;20207;-79
2021/03/06 01:32:32;;;;;;;8.90;3.57;;;-1.40;99.90;;;;;;5035172;28;20617;-78
2021/03/06 01:35:20;;;;;;;8.50;3.67;;;-1.50;99.90;;;;;;5038299;28;20215;-78
2021/03/06 01:38:05;;;;;;;9.23;3.63;;;-1.50;99.90;;;;;;5046240;28;20661;-77
2021/03/06 01:40:50;;;;;;;5.60;3.30;;;-1.50;99.90;;;;;;5052243;28;20208;-78
2021/03/06 01:43:35;;;;;;;7.80;3.53;;;-1.50;99.90;;;;;;5046162;28;20210;-76
2021/03/06 01:46:21;;;;;;;8.73;3.67;;;-1.50;99.90;;;;;;5054032;28;20203;-78
2021/03/06 01:49:05;;;;;;;10.77;3.07;;;-1.50;99.90;;;;;;5043195;28;20216;-79
2021/03/06 01:51:50;;;;;;;6.07;3.33;;;-1.60;99.90;;;;;;5036251;28;20218;-79
2021/03/06 01:54:38;;;;;;;13.27;3.70;;;-1.60;99.90;;;;;;5037776;28;20254;-78
2021/03/06 01:57:24;;;;;;;8.27;3.03;;;-1.60;99.90;;;;;;5030596;28;20231;-78
2021/03/06 02:00:10;;;;;;;8.10;3.57;;;-1.60;99.90;;;;;;5024556;28;20207;-78
2021/03/06 02:02:56;;;;;;;7.50;3.53;;;-1.70;99.90;;;;;;5032278;28;20230;-79
2021/03/06 02:05:43;;;;;;;7.93;3.57;;;-1.70;99.90;;;;;;5027190;28;20211;-78
2021/03/06 02:08:28;;;;;;;7.10;3.63;;;-1.70;99.90;;;;;;5034164;28;20286;-80
2021/03/06 02:11:22;;;;;;;11.60;3.87;;;-1.70;99.90;;;;;;5035576;28;20226;-79
2021/03/06 02:14:19;;;;;;;10.40;3.60;;;-1.80;99.90;;;;;;5033780;28;20211;-79
2021/03/06 02:17:10;;;;;;;10.17;3.57;;;-1.80;99.90;;;;;;5037280;28;20302;-80
2021/03/06 02:20:33;;;;;;;5.30;2.97;;;-1.80;99.90;;;;;;5037042;28;20712;-78
2021/03/06 02:24:01;;;;;;;9.33;3.60;;;-1.80;99.90;;;;;;5030748;28;20564;-78
2021/03/06 02:26:57;;;;;;;11.10;3.70;;;-1.90;99.90;;;;;;5036304;28;20219;-79
2021/03/06 02:29:50;;;;;;;7.77;3.30;;;-1.90;99.90;;;;;;5028980;28;20215;-79
2021/03/06 02:32:40;;;;;;;8.37;3.53;;;-1.80;99.90;;;;;;5031992;28;20235;-79
2021/03/06 02:35:28;;;;;;;10.07;3.43;;;-1.90;99.90;;;;;;5035992;28;20207;-78
2021/03/06 02:38:15;;;;;;;6.80;3.37;;;-1.90;99.90;;;;;;5031193;28;20234;-80
2021/03/06 02:41:01;;;;;;;6.77;3.27;;;-1.90;99.90;;;;;;5028656;28;20206;-79
2021/03/06 02:43:45;;;;;;;9.10;3.30;;;-1.90;99.90;;;;;;5033816;28;20273;-79
2021/03/06 02:46:32;;;;;;;10.73;4.30;;;-2.00;99.90;;;;;;5037657;28;20691;-79
2021/03/06 02:49:17;;;;;;;6.97;3.60;;;-2.00;99.90;;;;;;5033403;28;20226;-80
2021/03/06 02:52:02;;;;;;;7.37;3.37;;;-2.00;99.90;;;;;;5030210;28;20290;-79
2021/03/06 02:54:48;;;;;;;6.13;3.00;;;-2.00;99.90;;;;;;5029252;28;20703;-77
2021/03/06 02:58:14;;;;;;;8.63;3.57;;;-2.00;99.90;;;;;;5031655;28;20231;-77
2021/03/06 03:01:03;;;;;;;9.13;3.90;;;-2.00;99.90;;;;;;4953698;29;20210;-78
2021/03/06 03:03:57;;;;;;;10.43;4.03;;;-2.10;99.90;;;;;;5031960;28;20270;-77
2021/03/06 03:06:45;;;;;;;8.30;3.00;;;-2.10;99.90;;;;;;5029541;28;20288;-79
2021/03/06 03:09:33;;;;;;;13.73;4.50;;;-2.10;99.90;;;;;;5034717;28;20207;-79
2021/03/06 03:12:23;;;;;;;8.57;3.67;;;-2.10;99.90;;;;;;5041169;28;20584;-77
2021/03/06 03:15:15;;;;;;;6.27;3.37;;;-2.10;99.90;;;;;;5041998;28;20734;-78
2021/03/06 03:18:02;;;;;;;7.63;3.17;;;-2.10;99.90;;;;;;5034800;28;20219;-78
2021/03/06 03:20:53;;;;;;;8.97;3.40;;;-2.10;99.90;;;;;;5034474;28;20253;-78
2021/03/06 03:23:42;;;;;;;7.00;3.43;;;-2.20;99.90;;;;;;5036109;28;20262;-79
2021/03/06 03:26:29;;;;;;;8.10;3.77;;;-2.20;99.90;;;;;;5032272;28;20208;-78
2021/03/06 03:29:15;;;;;;;9.50;3.77;;;-2.20;99.90;;;;;;5025501;28;20232;-77
2021/03/06 03:32:00;;;;;;;7.80;3.07;;;-2.20;99.90;;;;;;5022752;28;20707;-76
2021/03/06 03:34:46;;;;;;;7.93;3.47;;;-2.20;99.90;;;;;;5035636;28;20219;-77
2021/03/06 03:37:35;;;;;;;8.80;3.63;;;-2.20;99.90;;;;;;5027939;28;20317;-78
2021/03/06 03:40:21;;;;;;;10.13;3.90;;;-2.20;99.90;;;;;;5034877;28;20206;-77
2021/03/06 03:43:07;;;;;;;11.23;3.30;;;-2.30;99.90;;;;;;5023973;28;20251;-77
2021/03/06 03:45:54;;;;;;;11.03;3.10;;;-2.30;99.90;;;;;;5026842;28;20353;-78
2021/03/06 03:48:44;;;;;;;10.67;3.63;;;-2.30;99.90;;;;;;5032718;28;20207;-78
2021/03/06 03:51:30;;;;;;;8.60;3.93;;;-2.30;99.90;;;;;;5029067;28;20274;-78
2021/03/06 03:54:16;;;;;;;10.23;3.37;;;-2.40;99.90;;;;;;5026454;28;20207;-78
2021/03/06 03:57:03;;;;;;;11.33;3.90;;;-2.40;99.90;;;;;;5022172;28;20301;-76
2021/03/06 03:59:48;;;;;;;6.63;3.20;;;-2.40;99.90;;;;;;5034447;28;20208;-78
2021/03/06 04:02:32;;;;;;;10.20;3.90;;;-2.40;99.90;;;;;;5032976;28;20235;-78
2021/03/06 04:05:17;;;;;;;10.07;4.17;;;-2.40;99.90;;;;;;5034412;28;20768;-77
2021/03/06 04:08:03;;;;;;;11.07;3.97;;;-2.40;99.90;;;;;;5035624;28;20712;-77
2021/03/06 04:10:49;;;;;;;13.20;4.03;;;-2.50;99.90;;;;;;5032761;28;20222;-77
2021/03/06 04:13:34;;;;;;;10.10;3.97;;;-2.40;99.90;;;;;;5034590;28;20227;-77
2021/03/06 04:16:19;;;;;;;13.00;4.83;;;-2.40;99.90;;;;;;5025849;28;20297;-77
2021/03/06 04:19:04;;;;;;;12.47;4.43;;;-2.40;99.90;;;;;;5034538;28;20293;-78
2021/03/06 04:21:49;;;;;;;10.37;5.07;;;-2.50;99.90;;;;;;5029311;28;20243;-78
2021/03/06 04:24:34;;;;;;;7.20;4.47;;;-2.50;99.90;;;;;;5030373;28;20283;-78
2021/03/06 04:27:19;;;;;;;8.53;4.87;;;-2.50;99.90;;;;;;5035121;28;20215;-78
2021/03/06 04:30:07;;;;;;;14.23;5.43;;;-2.50;99.90;;;;;;5033775;28;20202;-77
2021/03/06 04:32:52;;;;;;;13.00;5.57;;;-2.50;99.90;;;;;;5031532;28;20687;-78
2021/03/06 04:35:37;;;;;;;12.47;5.77;;;-2.40;99.90;;;;;;5032963;28;20211;-78
2021/03/06 04:38:22;;;;;;;12.00;5.37;;;-2.40;99.90;;;;;;5038556;28;20219;-78
2021/03/06 04:41:07;;;;;;;11.07;5.40;;;-2.40;99.90;;;;;;5036048;28;20343;-78
2021/03/06 04:43:53;;;;;;;11.40;5.27;;;-2.40;99.90;;;;;;5027801;28;20220;-77
2021/03/06 04:46:37;;;;;;;8.63;5.33;;;-2.40;99.90;;;;;;5034113;28;20231;-78
2021/03/06 04:49:22;;;;;;;15.67;5.23;;;-2.40;99.90;;;;;;5038408;28;20251;-78
2021/03/06 04:52:07;;;;;;;13.63;5.17;;;-2.40;99.90;;;;;;5039272;28;20263;-79
2021/03/06 04:54:52;;;;;;;7.67;4.33;;;-2.40;99.90;;;;;;5038342;28;20593;-77
2021/03/06 04:57:37;;;;;;;10.90;5.03;;;-2.40;99.90;;;;;;5032654;28;20222;-76
2021/03/06 05:00:23;;;;;;;10.93;4.33;;;-2.40;99.90;;;;;;5038949;28;20226;-77
2021/03/06 05:03:08;;;;;;;10.70;4.37;;;-2.40;99.90;;;;;;5038888;28;20277;-78
2021/03/06 05:05:53;;;;;;;15.43;4.93;;;-2.40;99.90;;;;;;5044943;28;20584;-79
2021/03/06 05:08:39;;;;;;;10.60;4.83;;;-2.40;99.90;;;;;;5039427;28;20250;-79
2021/03/06 05:11:24;;;;;;;15.30;4.53;;;-2.40;99.90;;;;;;5029875;28;20231;-79
2021/03/06 05:14:09;;;;;;;7.60;4.60;;;-2.50;99.90;;;;;;5036811;28;20227;-79
2021/03/06 05:16:54;;;;;;;9.53;4.40;;;-2.40;99.90;;;;;;5038639;28;20246;-79
2021/03/06 05:19:39;;;;;;;11.60;5.47;;;-2.50;99.90;;;;;;5033448;28;20211;-78
2021/03/06 05:22:24;;;;;;;9.20;4.47;;;-2.50;99.90;;;;;;5039170;28;20227;-77
2021/03/06 05:25:10;;;;;;;8.87;4.97;;;-2.60;99.90;;;;;;5039969;28;20280;-78
2021/03/06 05:27:55;;;;;;;14.73;5.23;;;-2.60;99.90;;;;;;5031042;28;20200;-78
2021/03/06 05:30:40;;;;;;;10.07;4.10;;;-2.60;99.90;;;;;;5039497;28;20226;-80
2021/03/06 05:33:25;;;;;;;11.10;6.13;;;-2.60;99.90;;;;;;5038333;28;20212;-77
2021/03/06 05:36:10;;;;;;;14.23;5.27;;;-2.60;99.90;;;;;;5043972;28;20219;-78
2021/03/06 05:38:55;;;;;;;10.77;5.33;;;-2.60;99.90;;;;;;5040129;28;20215;-77
2021/03/06 05:41:40;;;;;;;10.90;5.80;;;-2.70;99.90;;;;;;5034084;28;20266;-78
2021/03/06 05:44:26;;;;;;;20.33;7.73;;;-2.60;99.90;;;;;;5034967;28;20631;-78
2021/03/06 05:47:12;;;;;;;19.40;8.57;;;-2.70;99.90;;;;;;5041433;28;20251;-79
2021/03/06 05:49:58;;;;;;;18.77;8.40;;;-2.70;99.90;;;;;;5037882;28;20211;-78
2021/03/06 05:52:47;;;;;;;17.77;8.23;;;-2.70;99.90;;;;;;5036686;28;20231;-79
2021/03/06 05:55:33;;;;;;;15.63;7.53;;;-2.70;99.90;;;;;;5035190;28;20286;-79
2021/03/06 05:58:20;;;;;;;22.00;8.00;;;-2.70;99.90;;;;;;5033892;28;20694;-79
2021/03/06 06:01:05;;;;;;;13.73;7.13;;;-2.70;99.90;;;;;;5036935;28;20227;-78
2021/03/06 06:03:50;;;;;;;15.27;7.43;;;-2.60;99.90;;;;;;5030602;28;20227;-79
2021/03/06 06:06:38;;;;;;;13.20;6.73;;;-2.60;99.90;;;;;;5029946;28;20268;-78
2021/03/06 06:09:23;;;;;;;13.47;7.10;;;-2.70;99.90;;;;;;5033694;28;20215;-79
2021/03/06 06:12:09;;;;;;;21.73;7.00;;;-2.60;99.90;;;;;;5032865;28;20362;-78
2021/03/06 06:14:54;;;;;;;12.87;6.60;;;-2.70;99.90;;;;;;5033690;28;20254;-78
2021/03/06 06:17:40;;;;;;;19.37;6.90;;;-2.70;99.90;;;;;;5030782;28;20254;-76
2021/03/06 06:20:25;;;;;;;20.03;6.90;;;-2.70;99.90;;;;;;5033221;28;20758;-78
2021/03/06 06:23:12;;;;;;;10.47;6.13;;;-2.70;99.90;;;;;;5032531;28;20312;-77
2021/03/06 06:25:57;;;;;;;14.57;6.57;;;-2.70;99.90;;;;;;5033957;28;20215;-77
2021/03/06 06:28:48;;;;;;;14.00;6.60;;;-2.70;99.90;;;;;;5030392;28;20588;-78
2021/03/06 06:31:33;;;;;;;18.70;6.87;;;-2.70;99.90;;;;;;5032377;28;20234;-79
2021/03/06 06:34:18;;;;;;;14.93;6.73;;;-2.70;99.90;;;;;;5034853;28;20314;-78
2021/03/06 06:37:11;;;;;;;12.73;6.07;;;-2.80;99.90;;;;;;5035426;28;20269;-78
2021/03/06 06:39:57;;;;;;;13.77;6.87;;;-2.70;99.90;;;;;;5034115;28;20762;-78
2021/03/06 06:42:42;;;;;;;16.17;7.30;;;-2.70;99.90;;;;;;5028554;28;20226;-78
2021/03/06 06:45:37;;;;;;;18.00;7.77;;;-2.80;99.90;;;;;;5034622;28;20273;-78
2021/03/06 06:48:22;;;;;;;15.20;7.47;;;-2.80;99.90;;;;;;5034732;28;20207;-78
2021/03/06 06:51:08;;;;;;;14.50;7.23;;;-2.70;99.90;;;;;;5025711;28;20629;-78
2021/03/06 06:54:08;;;;;;;13.53;7.27;;;-2.70;99.90;;;;;;5041355;28;21157;-78
2021/03/06 06:57:10;;;;;;;15.50;7.10;;;-2.70;99.90;;;;;;5034125;28;20317;-78
2021/03/06 06:59:57;;;;;;;12.47;7.03;;;-2.60;99.90;;;;;;5028387;28;20238;-78
2021/03/06 07:02:53;;;;;;;14.43;7.37;;;-2.70;99.90;;;;;;5038607;28;20860;-77
2021/03/06 07:05:40;;;;;;;14.67;7.20;;;-2.70;99.90;;;;;;5038878;28;20207;-79
2021/03/06 07:08:26;;;;;;;16.43;8.30;;;-2.70;99.90;;;;;;5046719;28;20260;-77
2021/03/06 07:11:24;;;;;;;18.00;7.43;;;-2.60;99.90;;;;;;5039804;28;20270;-78
2021/03/06 07:14:10;;;;;;;18.43;8.17;;;-2.60;99.90;;;;;;5045396;28;20239;-78
2021/03/06 07:17:00;;;;;;;19.23;7.87;;;-2.60;99.90;;;;;;5035377;28;20227;-77
2021/03/06 07:19:45;;;;;;;15.40;8.00;;;-2.50;99.90;;;;;;5028108;28;20254;-78
2021/03/06 07:22:31;;;;;;;15.57;7.87;;;-2.50;99.90;;;;;;5036841;28;20275;-79
2021/03/06 07:25:16;;;;;;;21.43;8.37;;;-2.40;99.90;;;;;;5035571;28;20270;-77
2021/03/06 07:28:00;;;;;;;16.47;8.23;;;-2.40;99.90;;;;;;5037784;28;20207;-76
2021/03/06 07:30:47;;;;;;;22.57;8.33;;;-2.40;99.90;;;;;;5027538;28;20270;-78
2021/03/06 07:33:32;;;;;;;20.50;8.17;;;-2.30;99.90;;;;;;5034714;28;20208;-77
2021/03/06 07:36:17;;;;;;;17.07;8.60;;;-2.20;99.90;;;;;;5034789;28;20231;-78
2021/03/06 07:39:04;;;;;;;20.97;9.67;;;-2.20;99.90;;;;;;5031433;28;20202;-78
2021/03/06 07:41:54;;;;;;;22.53;10.20;;;-2.20;99.90;;;;;;5037325;28;20235;-78
2021/03/06 07:44:42;;;;;;;16.87;10.40;;;-2.10;99.90;;;;;;5035828;28;20207;-78
2021/03/06 07:47:32;;;;;;;20.00;11.10;;;-2.00;99.90;;;;;;5025982;28;20207;-78
2021/03/06 07:50:21;;;;;;;28.70;12.27;;;-2.00;99.90;;;;;;5035492;28;20270;-78
2021/03/06 07:53:07;;;;;;;28.93;13.77;;;-1.90;99.90;;;;;;5044167;28;20747;-77
2021/03/06 07:55:55;;;;;;;27.60;15.13;;;-1.80;99.90;;;;;;5027096;28;20207;-78
2021/03/06 07:58:48;;;;;;;35.37;19.13;;;-1.70;99.90;;;;;;5048187;28;20226;-77
2021/03/06 08:01:34;;;;;;;29.10;19.63;;;-1.60;99.90;;;;;;5041845;28;20299;-78
2021/03/06 08:04:35;;;;;;;42.93;23.63;;;-1.50;99.90;;;;;;5036074;28;20230;-78
2021/03/06 08:07:22;;;;;;;44.73;23.07;;;-1.30;99.90;;;;;;5040249;28;20293;-77
2021/03/06 08:10:08;;;;;;;46.10;24.90;;;-1.20;99.90;;;;;;5044103;28;20261;-80
2021/03/06 08:12:53;;;;;;;53.43;26.77;;;-1.10;99.90;;;;;;5041593;28;20231;-79
2021/03/06 08:15:39;;;;;;;44.70;26.80;;;-1.00;99.90;;;;;;5042344;28;20231;-78
2021/03/06 08:18:31;;;;;;;49.33;28.70;;;-0.80;99.90;;;;;;5029815;28;20354;-79
2021/03/06 08:21:27;;;;;;;46.43;27.10;;;-0.70;99.90;;;;;;5036554;28;20262;-78
2021/03/06 08:24:23;;;;;;;55.60;30.47;;;-0.50;99.90;;;;;;5038560;28;20203;-79
2021/03/06 08:27:18;;;;;;;49.43;28.70;;;-0.40;99.90;;;;;;5036237;28;20203;-79
2021/03/06 08:30:04;;;;;;;50.67;31.50;;;-0.20;99.90;;;;;;5037623;28;20214;-79
2021/03/06 08:32:48;;;;;;;50.23;31.63;;;-0.10;99.90;;;;;;5043433;28;20231;-79
2021/03/06 08:35:33;;;;;;;57.47;34.07;;;0.00;99.90;;;;;;5042896;28;20291;-79
2021/03/06 08:38:28;;;;;;;54.57;34.43;;;0.10;99.90;;;;;;5040456;28;20630;-78
2021/03/06 08:41:13;;;;;;;58.17;36.67;;;0.30;99.90;;;;;;5043410;28;20239;-78
2021/03/06 08:43:58;;;;;;;58.60;37.83;;;0.40;99.90;;;;;;5030807;28;20307;-78
2021/03/06 08:46:43;;;;;;;60.87;41.53;;;0.60;99.90;;;;;;5038546;28;20612;-78
2021/03/06 08:49:29;;;;;;;66.40;44.10;;;0.70;99.90;;;;;;5039675;28;20215;-77
2021/03/06 08:52:14;;;;;;;58.60;38.97;;;0.90;99.90;;;;;;5036599;28;20246;-76
2021/03/06 08:55:00;;;;;;;60.23;37.97;;;1.10;99.90;;;;;;5027260;28;20618;-79
2021/03/06 08:57:45;;;;;;;57.13;39.60;;;1.20;99.90;;;;;;5029803;28;20258;-75
2021/03/06 09:00:31;;;;;;;64.97;37.83;;;1.40;99.90;;;;;;5037381;28;20254;-78
2021/03/06 09:03:19;;;;;;;47.40;31.17;;;1.50;99.90;;;;;;5033968;28;20291;-77
2021/03/06 09:06:04;;;;;;;44.63;28.87;;;1.70;99.90;;;;;;5054098;28;20192;-77
2021/03/06 09:08:53;;;;;;;44.93;26.80;;;1.80;99.90;;;;;;5055622;28;20207;-76
2021/03/06 09:11:55;;;;;;;34.43;24.10;;;2.00;99.90;;;;;;5054570;28;20227;-76
2021/03/06 09:14:40;;;;;;;41.47;21.90;;;2.20;99.90;;;;;;5045774;28;20265;-77
2021/03/06 09:17:25;;;;;;;36.90;19.93;;;2.40;99.90;;;;;;5046918;28;20253;-79
2021/03/06 09:20:12;;;;;;;22.50;12.30;;;2.60;99.90;;;;;;5038506;28;20266;-79
2021/03/06 09:22:58;;;;;;;19.37;7.00;;;2.80;99.90;;;;;;5052079;28;20242;-78
2021/03/06 09:25:45;;;;;;;12.17;5.57;;;3.00;99.90;;;;;;5052393;28;20215;-79
2021/03/06 09:28:32;;;;;;;10.63;5.20;;;3.20;99.90;;;;;;5041402;28;20702;-78
2021/03/06 09:31:20;;;;;;;13.33;3.80;;;3.60;99.90;;;;;;5041259;28;20273;-79
2021/03/06 09:34:05;;;;;;;7.77;3.27;;;4.00;99.90;;;;;;5038767;28;20199;-79
2021/03/06 09:36:50;;;;;;;8.23;2.90;;;4.50;99.90;;;;;;5036425;28;20219;-77
2021/03/06 09:39:35;;;;;;;6.67;2.87;;;5.20;99.90;;;;;;5033998;28;20799;-80
2021/03/06 09:42:25;;;;;;;11.63;2.70;;;5.90;99.90;;;;;;5030062;28;20269;-79
2021/03/06 09:45:12;;;;;;;8.40;2.83;;;6.70;99.90;;;;;;5034658;28;20203;-80
2021/03/06 09:48:02;;;;;;;10.90;2.50;;;7.60;99.90;;;;;;5027679;28;20267;-78
2021/03/06 09:50:48;;;;;;;7.73;2.67;;;8.50;99.90;;;;;;5028492;28;20294;-80
2021/03/06 09:53:33;;;;;;;9.50;2.37;;;9.30;99.90;;;;;;5037178;28;20207;-79
2021/03/06 09:56:18;;;;;;;8.17;2.63;;;10.10;99.90;;;;;;5038615;28;20274;-79
2021/03/06 09:59:05;;;;;;;5.73;1.87;;;10.80;99.90;;;;;;5028860;28;20264;-79
2021/03/06 10:01:51;;;;;;;4.60;2.03;;;11.40;99.90;;;;;;5032191;28;20247;-80
2021/03/06 10:04:36;;;;;;;7.33;2.03;;;12.00;99.90;;;;;;5024194;28;20223;-78
2021/03/06 10:07:24;;;;;;;9.63;2.43;;;12.60;99.90;;;;;;5034488;28;20203;-78
2021/03/06 10:10:10;;;;;;;5.93;1.60;;;13.10;99.90;;;;;;5036659;28;20211;-79
2021/03/06 10:12:57;;;;;;;7.43;2.10;;;13.70;99.90;;;;;;5035270;28;20227;-78
2021/03/06 10:15:42;;;;;;;6.37;1.70;;;14.10;99.60;;;;;;5034363;28;20219;-80
2021/03/06 10:18:28;;;;;;;8.83;1.90;;;14.50;96.90;;;;;;5034712;28;20242;-80
2021/03/06 10:21:16;;;;;;;10.70;2.17;;;14.70;96.60;;;;;;5021700;28;20240;-78
2021/03/06 10:24:04;;;;;;;9.23;2.20;;;14.90;92.90;;;;;;5034109;28;20351;-79
2021/03/06 10:26:54;;;;;;;5.27;1.63;;;14.90;92.90;;;;;;5034703;28;20239;-79
2021/03/06 10:29:39;;;;;;;6.47;1.83;;;14.80;92.80;;;;;;5028237;28;20212;-79
2021/03/06 10:32:24;;;;;;;7.93;1.83;;;14.60;88.70;;;;;;5033954;28;20244;-79
2021/03/06 10:35:32;;;;;;;6.87;1.87;;;14.40;92.00;;;;;;5035133;28;20207;-78
2021/03/06 10:38:26;;;;;;;3.70;1.50;;;14.20;91.30;;;;;;5024861;28;20327;-80
2021/03/06 10:41:16;;;;;;;4.07;1.23;;;14.20;87.90;;;;;;5037573;28;20232;-80
2021/03/06 10:44:01;;;;;;;4.53;1.23;;;14.30;86.90;;;;;;5026482;28;20232;-79
2021/03/06 10:46:57;;;;;;;4.43;1.27;;;14.30;85.20;;;;;;5042765;28;20207;-78
2021/03/06 10:49:44;;;;;;;2.87;1.40;;;14.30;82.90;;;;;;5027970;28;20205;-79
2021/03/06 10:52:30;;;;;;;3.63;1.30;;;14.20;81.30;;;;;;5032670;28;20346;-79
2021/03/06 10:55:15;;;;;;;5.57;1.27;;;14.10;80.40;;;;;;5032848;28;20291;-76
2021/03/06 10:58:00;;;;;;;3.20;1.30;;;14.00;81.90;;;;;;5028725;28;20654;-79
2021/03/06 11:00:47;;;;;;;3.03;1.07;;;13.90;79.90;;;;;;5032431;28;20248;-80
2021/03/06 11:03:39;;;;;;;2.67;1.20;;;13.80;78.30;;;;;;5031896;28;20542;-80
2021/03/06 11:06:24;;;;;;;5.50;1.73;;;13.70;80.10;;;;;;5025201;28;20274;-78
2021/03/06 11:09:10;;;;;;;7.40;1.77;;;13.60;79.60;;;;;;5030725;28;20363;-78
2021/03/06 11:11:55;;;;;;;3.33;1.27;;;13.50;79.60;;;;;;5020822;28;20355;-79
2021/03/06 11:14:40;;;;;;;6.43;1.70;;;13.40;78.30;;;;;;5035666;28;20249;-78
2021/03/06 11:17:25;;;;;;;5.20;1.70;;;13.30;78.80;;;;;;5031232;28;20277;-79
2021/03/06 11:20:14;;;;;;;7.17;1.63;;;13.10;80.10;;;;;;5040683;28;20250;-78
2021/03/06 11:23:01;;;;;;;4.07;1.23;;;13.00;80.60;;;;;;5044749;28;20226;-77
2021/03/06 11:25:47;;;;;;;3.97;1.13;;;12.90;79.10;;;;;;5044032;28;20275;-80
2021/03/06 11:28:33;;;;;;;3.40;1.13;;;12.70;79.70;;;;;;5040644;28;20323;-79
2021/03/06 11:31:18;;;;;;;3.07;1.00;;;12.80;77.30;;;;;;5032735;28;20235;-79
2021/03/06 11:34:02;;;;;;;4.23;1.50;;;12.90;80.20;;;;;;5028816;28;20203;-81
2021/03/06 11:36:47;;;;;;;7.40;1.17;;;13.20;78.50;;;;;;5031064;28;20242;-80
2021/03/06 11:39:32;;;;;;;3.07;1.03;;;13.70;78.60;;;;;;5024040;28;20215;-81
2021/03/06 11:42:18;;;;;;;2.40;1.00;;;14.30;75.80;;;;;;5025123;28;20237;-81
2021/03/06 11:45:04;;;;;;;3.17;0.90;;;14.90;74.00;;;;;;5031139;28;20220;-81
2021/03/06 11:47:50;;;;;;;2.90;1.00;;;15.70;71.00;;;;;;5031665;28;20297;-81
2021/03/06 11:50:37;;;;;;;1.90;0.97;;;16.50;72.20;;;;;;5030178;28;20206;-81
2021/03/06 11:53:25;;;;;;;5.50;0.90;;;17.30;69.80;;;;;;5029352;28;20235;-80
2021/03/06 11:56:10;;;;;;;6.60;1.30;;;18.10;67.90;;;;;;5030172;28;20203;-80
2021/03/06 11:58:55;;;;;;;3.77;0.90;;;18.80;66.20;;;;;;5032944;28;20286;-82
2021/03/06 12:01:41;;;;;;;3.77;0.90;;;19.60;61.90;;;;;;5030074;28;20228;-83
2021/03/06 12:04:26;;;;;;;3.40;0.80;;;20.30;58.20;;;;;;5028389;28;20217;-80
2021/03/06 12:07:11;;;;;;;2.67;0.73;;;21.10;56.20;;;;;;5034514;28;20237;-80
2021/03/06 12:09:56;;;;;;;4.00;1.00;;;21.70;56.70;;;;;;5035669;28;20215;-82
2021/03/06 12:12:43;;;;;;;6.07;1.27;;;22.30;55.20;;;;;;5035824;28;20247;-82
2021/03/06 12:15:29;;;;;;;2.60;1.20;;;23.00;54.30;;;;;;5037921;28;20208;-81
2021/03/06 12:18:14;;;;;;;3.57;1.20;;;23.50;49.90;;;;;;5026062;28;20731;-82
2021/03/06 12:20:59;;;;;;;2.90;1.10;;;23.90;48.00;;;;;;5027647;28;20208;-83
2021/03/06 12:23:44;;;;;;;2.50;0.80;;;24.40;49.80;;;;;;5025685;28;20218;-83
2021/03/06 12:26:29;;;;;;;3.13;0.90;;;24.70;50.70;;;;;;5033201;28;20216;-82
2021/03/06 12:29:13;;;;;;;3.43;1.00;;;24.90;47.90;;;;;;5038499;28;20302;-82
2021/03/06 12:31:59;;;;;;;4.97;1.50;;;25.20;45.40;;;;;;5037050;28;20232;-82
2021/03/06 12:34:44;;;;;;;4.73;1.20;;;25.40;44.00;;;;;;5036859;28;20208;-84
2021/03/06 12:37:29;;;;;;;2.43;1.33;;;25.60;42.80;;;;;;5029688;28;20223;-82
2021/03/06 12:40:15;;;;;;;5.90;1.70;;;25.80;42.10;;;;;;5035151;28;20703;-84
2021/03/06 12:43:00;;;;;;;2.70;1.50;;;25.90;42.90;;;;;;5036469;28;20256;-82
2021/03/06 12:45:45;;;;;;;3.30;1.50;;;25.90;44.90;;;;;;5025828;28;20211;-81
2021/03/06 12:48:31;;;;;;;1.70;1.00;;;26.00;42.40;;;;;;5038437;28;20693;-82
2021/03/06 12:51:17;;;;;;;3.87;1.50;;;26.10;42.00;;;;;;5054202;28;20233;-83
2021/03/06 12:54:02;;;;;;;2.23;1.10;;;26.20;43.00;;;;;;5041328;28;20267;-83
2021/03/06 12:56:47;;;;;;;2.53;1.47;;;26.30;42.20;;;;;;5038933;28;20211;-81
2021/03/06 12:59:32;;;;;;;2.63;1.20;;;26.40;42.80;;;;;;5034052;28;20258;-82
2021/03/06 13:02:17;;;;;;;3.83;1.20;;;26.50;40.80;;;;;;5039085;28;20244;-80
2021/03/06 13:05:04;;;;;;;3.30;1.30;;;26.50;44.00;;;;;;5032736;28;20299;-83
2021/03/06 13:07:49;;;;;;;2.77;1.50;;;26.50;40.00;;;;;;5029595;28;20243;-82
2021/03/06 13:10:34;;;;;;;3.30;1.20;;;26.60;42.20;;;;;;5039194;28;20640;-81
2021/03/06 13:13:19;;;;;;;2.57;1.13;;;26.60;41.80;;;;;;5030624;28;20211;-82
2021/03/06 13:16:04;;;;;;;3.97;1.30;;;26.70;41.80;;;;;;5035508;28;20743;-82
2021/03/06 13:18:49;;;;;;;1.57;1.17;;;26.80;39.80;;;;;;5034754;28;20231;-82
2021/03/06 13:21:35;;;;;;;3.70;1.20;;;26.90;41.80;;;;;;5035407;28;20265;-80
2021/03/06 13:24:20;;;;;;;1.90;1.00;;;27.10;39.10;;;;;;5041092;28;20208;-81
2021/03/06 13:27:06;;;;;;;2.93;1.10;;;27.20;38.80;;;;;;5041605;28;20210;-81
2021/03/06 13:29:51;;;;;;;3.33;0.93;;;27.20;39.60;;;;;;5040265;28;20225;-85
2021/03/06 13:32:36;;;;;;;4.00;1.23;;;27.30;42.00;;;;;;5040197;28;20242;-82
2021/03/06 13:35:22;;;;;;;2.03;1.00;;;27.30;39.40;;;;;;5039065;28;20204;-84
2021/03/06 13:38:08;;;;;;;1.60;1.00;;;27.40;38.90;;;;;;5033750;28;20273;-82
2021/03/06 13:40:53;;;;;;;1.80;1.00;;;27.30;39.30;;;;;;5035766;28;20272;-82
2021/03/06 13:43:38;;;;;;;1.70;0.90;;;27.20;38.50;;;;;;5035957;28;20201;-82
2021/03/06 13:46:23;;;;;;;1.87;1.10;;;27.00;40.00;;;;;;5028428;28;20227;-82
2021/03/06 13:49:07;;;;;;;2.20;1.10;;;26.70;38.60;;;;;;5034792;28;20208;-82
2021/03/06 13:51:52;;;;;;;1.60;1.03;;;26.40;39.30;;;;;;5035823;28;20257;-81
2021/03/06 13:54:38;;;;;;;2.73;0.90;;;26.20;38.30;;;;;;5026969;28;20213;-83
2021/03/06 13:57:23;;;;;;;2.43;1.10;;;25.80;39.30;;;;;;5038462;28;20220;-83
2021/03/06 14:00:09;;;;;;;2.37;1.00;;;25.50;42.10;;;;;;5037243;28;20208;-82
2021/03/06 14:02:54;;;;;;;3.47;1.30;;;25.30;39.80;;;;;;5035036;28;20247;-81
2021/03/06 14:05:39;;;;;;;2.03;1.23;;;25.30;39.30;;;;;;5032004;28;20212;-82
2021/03/06 14:08:24;;;;;;;1.20;1.10;;;25.20;39.60;;;;;;5034933;28;20205;-82
2021/03/06 14:11:09;;;;;;;1.50;1.10;;;25.10;39.60;;;;;;5035912;28;20217;-81
2021/03/06 14:13:54;;;;;;;1.93;1.20;;;24.70;39.60;;;;;;5038597;28;20632;-81
2021/03/06 14:16:39;;;;;;;3.50;1.10;;;24.30;41.40;;;;;;5032154;28;20274;-81
2021/03/06 14:19:24;;;;;;;3.30;1.20;;;23.80;44.60;;;;;;5031976;28;20224;-82
2021/03/06 14:22:10;;;;;;;5.07;1.30;;;23.50;41.90;;;;;;5035764;28;20227;-80
2021/03/06 14:24:55;;;;;;;1.40;1.20;;;23.30;42.10;;;;;;5035786;28;20213;-83